createdAt,value
2022-08-23T00:02:23.112Z,21.30
2022-08-23T00:05:11.077Z,21.30
2022-08-23T00:07:58.473Z,21.30
2022-08-23T00:10:45.304Z,21.40
2022-08-23T00:13:47.816Z,21.30
2022-08-23T00:16:35.533Z,21.20
2022-08-23T00:19:23.706Z,21.20
2022-08-23T00:22:11.592Z,21.30
2022-08-23T00:24:58.501Z,21.20
2022-08-23T00:27:45.671Z,21.30
2022-08-23T00:30:34.103Z,21.10
2022-08-23T00:33:22.100Z,21.10
2022-08-23T00:36:08.914Z,21.20
2022-08-23T00:38:55.689Z,21.20
2022-08-23T00:41:42.969Z,21.10
2022-08-23T00:44:51.632Z,21.10
2022-08-23T00:47:43.095Z,21.10
2022-08-23T00:50:37.687Z,20.90
2022-08-23T00:53:27.153Z,21.00
2022-08-23T00:56:17.804Z,20.90
2022-08-23T00:59:04.767Z,20.90
2022-08-23T01:01:52.515Z,21.00
2022-08-23T01:04:44.435Z,21.00
2022-08-23T01:07:42.132Z,21.00
2022-08-23T01:10:33.361Z,20.80
2022-08-23T01:13:24.477Z,20.80
2022-08-23T01:16:16.370Z,20.70
2022-08-23T01:19:07.981Z,20.50
2022-08-23T01:22:04.679Z,20.60
2022-08-23T01:25:05.817Z,20.60
2022-08-23T01:27:57.628Z,20.60
2022-08-23T01:30:46.293Z,20.60
2022-08-23T01:33:32.868Z,20.70
2022-08-23T01:36:20.163Z,20.60
2022-08-23T01:39:09.680Z,20.40
2022-08-23T01:41:57.953Z,20.20
2022-08-23T01:44:44.897Z,20.30
2022-08-23T01:47:31.841Z,20.00
2022-08-23T01:50:19.307Z,19.70
2022-08-23T01:53:06.834Z,19.40
2022-08-23T01:55:53.782Z,19.20
2022-08-23T01:58:43.112Z,18.90
2022-08-23T02:01:31.794Z,18.70
2022-08-23T02:04:18.486Z,18.70
2022-08-23T02:07:06.041Z,18.60
2022-08-23T02:09:53.031Z,18.60
2022-08-23T02:12:41.006Z,18.50
2022-08-23T02:15:33.785Z,18.40
2022-08-23T02:18:21.861Z,18.40
2022-08-23T02:21:10.636Z,18.40
2022-08-23T02:23:58.563Z,18.60
2022-08-23T02:26:48.418Z,18.80
2022-08-23T02:29:45.511Z,18.80
2022-08-23T02:32:33.829Z,18.80
2022-08-23T02:35:21.231Z,19.00
2022-08-23T02:38:09.885Z,19.10
2022-08-23T02:41:00.832Z,19.20
2022-08-23T02:43:48.189Z,19.10
2022-08-23T02:46:35.528Z,19.20
2022-08-23T02:49:23.832Z,19.10
2022-08-23T02:52:10.794Z,19.10
2022-08-23T02:54:58.324Z,19.10
2022-08-23T02:57:45.665Z,19.00
2022-08-23T03:00:33.229Z,19.00
2022-08-23T03:03:22.594Z,19.00
2022-08-23T03:06:25.797Z,19.00
2022-08-23T03:09:13.481Z,19.00
2022-08-23T03:12:00.100Z,19.10
2022-08-23T03:14:47.619Z,19.20
2022-08-23T03:17:34.385Z,19.00
2022-08-23T03:20:22.478Z,19.00
2022-08-23T03:23:12.825Z,18.90
2022-08-23T03:26:00.474Z,18.70
2022-08-23T03:28:49.523Z,18.60
2022-08-23T03:31:36.513Z,18.50
2022-08-23T03:34:28.972Z,18.50
2022-08-23T03:37:16.443Z,18.60
2022-08-23T03:40:07.571Z,18.70
2022-08-23T03:42:54.538Z,18.70
2022-08-23T03:45:44.048Z,18.70
2022-08-23T03:48:30.975Z,18.70
2022-08-23T03:51:19.553Z,18.50
2022-08-23T03:54:07.099Z,18.50
2022-08-23T03:56:59.702Z,18.50
2022-08-23T03:59:48.929Z,18.50
2022-08-23T04:02:36.086Z,18.60
2022-08-23T04:05:23.532Z,18.70
2022-08-23T04:08:11.234Z,18.60
2022-08-23T04:11:00.483Z,18.70
2022-08-23T04:13:48.262Z,18.60
2022-08-23T04:16:37.657Z,18.50
2022-08-23T04:19:25.293Z,18.40
2022-08-23T04:22:24.985Z,18.40
2022-08-23T04:25:33.494Z,18.40
2022-08-23T04:28:19.983Z,18.30
2022-08-23T04:31:09.170Z,18.10
2022-08-23T04:33:57.907Z,17.90
2022-08-23T04:36:51.936Z,18.00
2022-08-23T04:40:00.402Z,17.90
2022-08-23T04:42:54.115Z,17.80
2022-08-23T04:45:41.392Z,17.70
2022-08-23T04:48:37.037Z,17.90
2022-08-23T04:51:23.893Z,17.80
2022-08-23T04:54:10.577Z,17.90
2022-08-23T04:57:24.059Z,18.00
2022-08-23T05:00:13.310Z,18.10
2022-08-23T05:03:06.916Z,18.10
2022-08-23T05:05:55.805Z,18.10
2022-08-23T05:08:47.774Z,18.20
2022-08-23T05:11:35.037Z,18.30
2022-08-23T05:14:21.960Z,18.30
2022-08-23T05:17:09.129Z,18.40
2022-08-23T05:19:56.908Z,18.50
2022-08-23T05:22:45.166Z,18.80
2022-08-23T05:25:53.465Z,19.30
2022-08-23T05:28:55.136Z,19.60
2022-08-23T05:31:49.876Z,20.20
2022-08-23T05:34:38.357Z,20.50
2022-08-23T05:37:29.860Z,21.00
2022-08-23T05:40:18.581Z,21.60
2022-08-23T05:43:19.565Z,21.80
2022-08-23T05:46:13.007Z,21.90
2022-08-23T05:49:04.644Z,22.30
2022-08-23T05:51:51.661Z,22.30
2022-08-23T05:54:39.650Z,22.50
2022-08-23T05:57:50.515Z,23.20
2022-08-23T06:00:40.394Z,23.50
2022-08-23T06:03:28.416Z,23.30
2022-08-23T06:06:16.882Z,23.30
2022-08-23T06:09:05.209Z,23.40
2022-08-23T06:11:52.495Z,23.60
2022-08-23T06:14:41.609Z,23.70
2022-08-23T06:17:29.208Z,23.90
2022-08-23T06:20:17.284Z,24.60
2022-08-23T06:23:26.221Z,25.00
2022-08-23T06:26:14.900Z,25.50
2022-08-23T06:29:06.542Z,25.60
2022-08-23T06:31:56.511Z,25.70
2022-08-23T06:34:49.021Z,26.10
2022-08-23T06:37:42.139Z,26.40
2022-08-23T06:40:48.740Z,27.00
2022-08-23T06:43:44.219Z,27.30
2022-08-23T06:46:50.196Z,27.50
2022-08-23T06:49:38.220Z,28.10
2022-08-23T06:52:25.483Z,28.30
2022-08-23T06:55:38.681Z,28.40
2022-08-23T06:58:37.741Z,28.50
2022-08-23T07:01:46.595Z,28.40
2022-08-23T07:05:01.178Z,28.00
2022-08-23T07:08:23.094Z,28.70
2022-08-23T07:11:10.255Z,29.30
2022-08-23T07:14:01.391Z,29.80
2022-08-23T07:16:50.857Z,30.20
2022-08-23T07:19:37.981Z,30.30
2022-08-23T07:22:25.949Z,30.40
2022-08-23T07:25:13.016Z,30.60
2022-08-23T07:28:01.820Z,31.20
2022-08-23T07:30:49.074Z,31.20
2022-08-23T07:33:36.092Z,31.20
2022-08-23T07:36:32.906Z,31.30
2022-08-23T07:39:22.216Z,31.10
2022-08-23T07:42:23.776Z,31.30
2022-08-23T07:45:14.391Z,31.60
2022-08-23T07:48:05.873Z,31.60
2022-08-23T07:51:02.328Z,31.80
2022-08-23T07:53:49.345Z,32.20
2022-08-23T07:56:39.453Z,32.20
2022-08-23T07:59:37.453Z,32.50
2022-08-23T08:02:35.179Z,32.80
2022-08-23T08:05:22.742Z,32.80
2022-08-23T08:08:12.441Z,33.30
2022-08-23T08:10:58.966Z,33.50
2022-08-23T08:13:50.725Z,33.30
2022-08-23T08:16:40.916Z,33.30
2022-08-23T08:19:30.669Z,33.30
2022-08-23T08:22:23.087Z,33.70
2022-08-23T08:25:34.210Z,33.50
2022-08-23T08:28:23.907Z,33.60
2022-08-23T08:31:13.330Z,33.50
2022-08-23T08:34:00.241Z,33.90
2022-08-23T08:36:50.139Z,33.90
2022-08-23T08:39:45.608Z,33.80
2022-08-23T08:42:55.299Z,33.90
2022-08-23T08:45:53.521Z,34.00
2022-08-23T08:48:50.585Z,33.90
2022-08-23T08:51:49.131Z,33.90
2022-08-23T08:54:38.293Z,34.30
2022-08-23T08:57:27.565Z,34.60
2022-08-23T09:00:18.513Z,34.90
2022-08-23T09:03:14.286Z,34.70
2022-08-23T09:06:08.549Z,34.90
2022-08-23T09:09:13.790Z,34.80
2022-08-23T09:12:11.944Z,34.80
2022-08-23T09:15:15.599Z,34.70
2022-08-23T09:18:09.731Z,34.60
2022-08-23T09:21:01.814Z,35.20
2022-08-23T09:24:00.865Z,34.70
2022-08-23T09:27:00.218Z,35.00
2022-08-23T09:29:56.136Z,35.00
2022-08-23T09:32:45.940Z,35.30
2022-08-23T09:35:35.093Z,34.90
2022-08-23T09:38:29.848Z,35.00
2022-08-23T09:41:27.113Z,35.40
2022-08-23T09:44:33.582Z,35.30
2022-08-23T09:47:20.797Z,35.10
2022-08-23T09:50:32.079Z,35.40
2022-08-23T09:53:28.096Z,35.80
2022-08-23T09:56:19.554Z,36.00
2022-08-23T10:02:02.248Z,36.10
2022-08-23T10:04:58.467Z,36.50
2022-08-23T10:07:55.159Z,36.40
2022-08-23T10:10:50.978Z,36.40
2022-08-23T10:13:43.762Z,36.50
2022-08-23T10:16:40.904Z,36.10
2022-08-23T10:19:48.084Z,35.80
2022-08-23T10:22:44.743Z,35.80
2022-08-23T10:25:44.687Z,36.10
2022-08-23T10:28:57.827Z,36.20
2022-08-23T10:31:56.759Z,36.30
2022-08-23T10:35:07.314Z,35.50
2022-08-23T10:38:08.225Z,35.30
2022-08-23T10:41:02.385Z,35.40
2022-08-23T10:43:58.936Z,34.70
2022-08-23T10:46:54.565Z,35.10
2022-08-23T10:49:42.958Z,35.20
2022-08-23T10:52:37.053Z,35.10
2022-08-23T10:55:39.055Z,35.40
2022-08-23T10:58:29.253Z,35.30
2022-08-23T11:01:22.147Z,35.40
2022-08-23T11:04:21.354Z,36.00
2022-08-23T11:07:23.641Z,36.10
2022-08-23T11:10:18.604Z,36.10
2022-08-23T11:13:23.238Z,36.30
2022-08-23T11:16:16.387Z,36.30
2022-08-23T11:19:05.799Z,36.50
2022-08-23T11:22:14.813Z,36.10
2022-08-23T11:25:03.342Z,35.80
2022-08-23T11:28:40.869Z,35.80
2022-08-23T11:31:32.983Z,35.30
2022-08-23T11:34:28.962Z,35.60
2022-08-23T11:37:32.289Z,35.50
2022-08-23T11:40:58.115Z,35.40
2022-08-23T11:44:13.308Z,35.60
2022-08-23T11:47:03.414Z,36.00
2022-08-23T11:50:26.211Z,36.10
2022-08-23T11:53:24.937Z,36.00
2022-08-23T11:56:32.911Z,35.30
2022-08-23T11:59:41.758Z,34.90
2022-08-23T12:02:47.482Z,34.60
2022-08-23T12:06:05.593Z,34.50
2022-08-23T12:08:58.010Z,34.70
2022-08-23T12:12:11.155Z,34.90
2022-08-23T12:15:02.043Z,34.90
2022-08-23T12:18:14.179Z,35.20
2022-08-23T12:21:01.822Z,35.10
2022-08-23T12:23:51.146Z,35.20
2022-08-23T12:26:49.527Z,34.80
2022-08-23T12:29:47.414Z,34.30
2022-08-23T12:32:42.293Z,34.30
2022-08-23T12:35:36.331Z,34.30
2022-08-23T12:38:35.728Z,34.50
2022-08-23T12:41:25.060Z,34.10
2022-08-23T12:44:12.229Z,33.70
2022-08-23T12:47:10.362Z,33.50
2022-08-23T12:50:01.756Z,33.10
2022-08-23T12:52:59.383Z,32.70
2022-08-23T12:55:49.605Z,32.70
2022-08-23T12:58:39.832Z,32.70
2022-08-23T13:01:30.064Z,32.80
2022-08-23T13:04:18.185Z,32.80
2022-08-23T13:07:08.710Z,32.70
2022-08-23T13:09:56.580Z,32.40
2022-08-23T13:12:43.950Z,32.20
2022-08-23T13:15:42.540Z,32.20
2022-08-23T13:18:33.882Z,32.30
2022-08-23T13:21:27.718Z,32.60
2022-08-23T13:24:38.598Z,32.60
2022-08-23T13:27:28.948Z,32.50
2022-08-23T13:30:25.362Z,32.10
2022-08-23T13:33:23.454Z,32.10
2022-08-23T13:36:14.942Z,32.20
2022-08-23T13:39:07.880Z,31.80
2022-08-23T13:41:56.626Z,31.60
2022-08-23T13:44:44.612Z,31.70
2022-08-23T13:47:31.641Z,31.70
2022-08-23T13:50:25.219Z,31.40
2022-08-23T13:53:15.102Z,31.30
2022-08-23T13:56:02.185Z,31.20
2022-08-23T13:58:57.636Z,31.00
2022-08-23T14:01:45.210Z,30.80
2022-08-23T14:04:32.072Z,30.80
2022-08-23T14:07:18.686Z,30.90
2022-08-23T14:10:07.376Z,31.10
2022-08-23T14:12:56.285Z,31.20
2022-08-23T14:19:55.328Z,31.00
2022-08-23T14:22:10.349Z,31.30
2022-08-23T14:24:57.056Z,31.20
2022-08-23T14:27:47.476Z,31.20
2022-08-23T14:30:37.001Z,30.90
2022-08-23T14:33:25.905Z,31.00
2022-08-23T14:36:12.615Z,31.10
2022-08-23T14:38:59.342Z,31.00
2022-08-23T14:41:49.148Z,31.00
2022-08-23T14:44:39.125Z,31.10
2022-08-23T14:47:26.705Z,31.10
2022-08-23T14:50:16.031Z,31.10
2022-08-23T14:53:05.189Z,31.00
2022-08-23T14:56:12.267Z,31.00
2022-08-23T14:59:00.089Z,30.90
2022-08-23T15:01:48.303Z,30.90
2022-08-23T15:04:35.551Z,30.80
2022-08-23T15:07:24.102Z,30.70
2022-08-23T15:10:49.573Z,30.80
2022-08-23T15:13:27.084Z,30.80
2022-08-23T15:16:18.954Z,30.80
2022-08-23T15:19:06.535Z,30.90
2022-08-23T15:21:53.441Z,30.90
2022-08-23T15:24:41.307Z,31.00
2022-08-23T15:27:28.489Z,31.10
2022-08-23T15:30:16.997Z,31.20
2022-08-23T15:33:04.057Z,31.30
2022-08-23T15:35:52.795Z,31.40
2022-08-23T15:38:39.509Z,31.40
2022-08-23T15:41:28.211Z,31.30
2022-08-23T15:44:15.195Z,31.10
2022-08-23T15:47:03.638Z,31.10
2022-08-23T15:49:51.359Z,30.80
2022-08-23T15:52:38.277Z,30.80
2022-08-23T15:55:32.202Z,30.70
2022-08-23T15:58:24.038Z,30.60
2022-08-23T16:01:11.988Z,30.70
2022-08-23T16:03:59.040Z,30.60
2022-08-23T16:06:49.157Z,30.60
2022-08-23T16:09:36.772Z,30.50
2022-08-23T16:12:23.509Z,30.50
2022-08-23T16:15:12.177Z,30.50
2022-08-23T16:17:58.940Z,30.40
2022-08-23T16:20:46.193Z,30.40
2022-08-23T16:23:32.861Z,30.30
2022-08-23T16:26:23.309Z,30.40
2022-08-23T16:29:22.032Z,30.30
2022-08-23T16:32:10.589Z,30.30
2022-08-23T16:34:57.291Z,30.30
2022-08-23T16:37:44.272Z,30.20
2022-08-23T16:40:31.270Z,30.10
2022-08-23T16:43:18.160Z,30.10
2022-08-23T16:46:05.395Z,30.10
2022-08-23T16:48:53.237Z,30.00
2022-08-23T16:51:40.109Z,30.10
2022-08-23T16:54:28.349Z,30.10
2022-08-23T16:57:17.676Z,30.00
2022-08-23T17:00:06.878Z,29.90
2022-08-23T17:02:54.028Z,29.90
2022-08-23T17:05:42.369Z,29.90
2022-08-23T17:08:29.377Z,29.90
2022-08-23T17:11:20.159Z,29.90
2022-08-23T17:14:07.005Z,29.90
2022-08-23T17:16:53.939Z,29.80
2022-08-23T17:19:41.131Z,29.70
2022-08-23T17:22:29.030Z,29.70
2022-08-23T17:25:17.193Z,29.60
2022-08-23T17:28:04.451Z,29.50
2022-08-23T17:30:51.464Z,29.40
2022-08-23T17:33:39.829Z,29.40
2022-08-23T17:36:31.300Z,29.40
2022-08-23T17:39:22.199Z,29.40
2022-08-23T17:42:09.007Z,29.30
2022-08-23T17:44:55.544Z,29.30
2022-08-23T17:47:42.636Z,29.30
2022-08-23T17:50:29.255Z,29.30
2022-08-23T17:53:17.635Z,29.20
2022-08-23T17:56:09.913Z,29.20
2022-08-23T17:58:59.301Z,29.20
2022-08-23T18:01:46.233Z,29.10
2022-08-23T18:04:32.749Z,29.00
2022-08-23T18:07:21.702Z,28.90
2022-08-23T18:10:11.972Z,28.90
2022-08-23T18:13:00.040Z,28.80
2022-08-23T18:15:47.326Z,28.60
2022-08-23T18:18:34.589Z,28.40
2022-08-23T18:21:21.749Z,28.30
2022-08-23T18:24:09.616Z,28.10
2022-08-23T18:27:15.466Z,27.90
2022-08-23T18:30:11.854Z,27.70
2022-08-23T18:32:59.220Z,27.50
2022-08-23T18:35:46.816Z,27.30
2022-08-23T18:38:33.566Z,26.90
2022-08-23T18:41:21.168Z,26.50
2022-08-23T18:44:08.357Z,26.30
2022-08-23T18:46:56.637Z,26.20
2022-08-23T18:49:43.362Z,26.00
2022-08-23T18:52:32.292Z,25.80
2022-08-23T18:55:20.142Z,25.70
2022-08-23T18:58:07.910Z,25.70
2022-08-23T19:00:54.392Z,25.70
2022-08-23T19:03:42.422Z,25.60
2022-08-23T19:06:29.601Z,25.50
2022-08-23T19:09:16.476Z,25.20
2022-08-23T19:12:03.681Z,25.10
2022-08-23T19:14:50.204Z,24.80
2022-08-23T19:17:37.049Z,24.60
2022-08-23T19:20:25.764Z,24.40
2022-08-23T19:23:12.842Z,24.30
2022-08-23T19:25:59.560Z,24.20
2022-08-23T19:28:46.849Z,24.00
2022-08-23T19:31:39.648Z,23.90
2022-08-23T19:34:28.491Z,23.80
2022-08-23T19:37:23.064Z,23.70
2022-08-23T19:40:11.567Z,23.50
2022-08-23T19:43:00.390Z,23.40
2022-08-23T19:45:47.099Z,23.30
2022-08-23T19:48:34.342Z,23.20
2022-08-23T19:51:21.869Z,23.30
2022-08-23T19:54:12.346Z,23.20
2022-08-23T19:57:01.025Z,23.10
2022-08-23T19:59:47.611Z,23.10
2022-08-23T20:02:34.080Z,23.00
2022-08-23T20:05:22.326Z,23.00
2022-08-23T20:08:09.362Z,23.00
2022-08-23T20:10:57.420Z,22.90
2022-08-23T20:13:44.246Z,23.00
2022-08-23T20:16:32.544Z,23.10
2022-08-23T20:19:19.634Z,23.20
2022-08-23T20:22:24.054Z,23.30
2022-08-23T20:25:10.709Z,23.00
2022-08-23T20:27:58.711Z,23.00
2022-08-23T20:30:45.160Z,22.80
2022-08-23T20:33:32.592Z,22.60
2022-08-23T20:36:20.358Z,22.70
2022-08-23T20:39:07.844Z,22.90
2022-08-23T20:41:55.340Z,22.80
2022-08-23T20:44:44.526Z,22.90
2022-08-23T20:47:31.229Z,23.00
2022-08-23T20:50:17.793Z,22.90
2022-08-23T20:53:09.262Z,22.60
2022-08-23T20:55:56.332Z,22.70
2022-08-23T20:58:43.055Z,22.70
2022-08-23T21:01:31.326Z,22.50
2022-08-23T21:04:18.730Z,22.40
2022-08-23T21:07:06.073Z,22.40
2022-08-23T21:09:52.710Z,22.40
2022-08-23T21:12:39.297Z,22.30
2022-08-23T21:15:26.021Z,22.20
2022-08-23T21:18:14.251Z,22.00
2022-08-23T21:21:01.152Z,21.90
2022-08-23T21:23:47.849Z,21.90
2022-08-23T21:26:35.505Z,21.50
2022-08-23T21:29:22.228Z,21.20
2022-08-23T21:32:08.678Z,21.20
2022-08-23T21:34:57.818Z,21.40
2022-08-23T21:37:44.316Z,21.40
2022-08-23T21:40:31.271Z,21.50
2022-08-23T21:43:18.272Z,21.60
2022-08-23T21:46:07.197Z,21.80
2022-08-23T21:48:54.375Z,21.80
2022-08-23T21:51:43.181Z,21.80
2022-08-23T21:54:29.787Z,21.80
2022-08-23T21:57:16.790Z,21.70
2022-08-23T22:00:05.469Z,21.80
2022-08-23T22:02:59.605Z,22.00
2022-08-23T22:05:48.934Z,22.10
2022-08-23T22:08:37.074Z,22.20
2022-08-23T22:11:24.250Z,22.20
2022-08-23T22:14:12.284Z,21.80
2022-08-23T22:16:59.062Z,21.50
2022-08-23T22:19:45.679Z,21.60
2022-08-23T22:22:33.213Z,21.60
2022-08-23T22:25:21.398Z,21.50
2022-08-23T22:28:08.497Z,21.50
2022-08-23T22:30:58.163Z,21.20
2022-08-23T22:33:46.249Z,21.00
2022-08-23T22:36:33.383Z,21.10
2022-08-23T22:39:20.416Z,21.20
2022-08-23T22:42:09.901Z,21.10
2022-08-23T22:44:56.994Z,20.80
2022-08-23T22:47:43.635Z,21.00
2022-08-23T22:50:30.050Z,20.60
2022-08-23T22:53:17.509Z,20.40
2022-08-23T22:56:05.163Z,20.20
2022-08-23T22:58:53.692Z,20.10
2022-08-23T23:01:44.280Z,20.10
2022-08-23T23:04:32.320Z,20.20
2022-08-23T23:07:39.074Z,20.20
2022-08-23T23:10:25.366Z,20.20
2022-08-23T23:13:11.813Z,20.10
2022-08-23T23:16:03.677Z,20.20
2022-08-23T23:19:04.986Z,20.00
2022-08-23T23:21:53.718Z,19.90
2022-08-23T23:24:41.378Z,20.10
2022-08-23T23:27:28.186Z,20.30
2022-08-23T23:30:15.273Z,20.10
2022-08-23T23:33:04.188Z,20.20
2022-08-23T23:35:51.984Z,20.20
2022-08-23T23:38:38.821Z,20.10
2022-08-23T23:41:25.693Z,20.00
2022-08-23T23:44:12.085Z,20.20
2022-08-23T23:46:58.647Z,20.30
2022-08-23T23:49:46.902Z,20.20
2022-08-23T23:52:33.320Z,20.10
2022-08-23T23:55:21.864Z,20.00
2022-08-23T23:58:08.787Z,20.10
